sensor_id;sensor_type;location;lat;lon;timestamp;pressure;altitude;pressure_sealevel;temperature;humidity
62011;BME280;47967;51.756;10.174;2024-02-26T05:03:46;98340.31;;;0.88;100.00
62011;BME280;47967;51.756;10.174;2024-02-26T05:07:48;98339.81;;;0.85;100.00
62011;BME280;47967;51.756;10.174;2024-02-26T05:11:51;98340.31;;;0.88;100.00
62011;BME280;47967;51.756;10.174;2024-02-26T05:15:54;98347.91;;;0.91;100.00
62011;BME280;47967;51.756;10.174;2024-02-26T05:19:57;98352.69;;;0.96;100.00
62011;BME280;47967;51.756;10.174;2024-02-26T05:24:00;98339.91;;;1.00;100.00
62011;BME280;47967;51.756;10.174;2024-02-26T05:28:03;98345.88;;;1.02;100.00
62011;BME280;47967;51.756;10.174;2024-02-26T05:32:06;98345.47;;;1.13;100.00
62011;BME280;47967;51.756;10.174;2024-02-26T05:36:09;98332.16;;;1.21;100.00
62011;BME280;47967;51.756;10.174;2024-02-26T05:40:12;98345.22;;;1.31;100.00
62011;BME280;47967;51.756;10.174;2024-02-26T05:44:15;98347.03;;;1.31;100.00
62011;BME280;47967;51.756;10.174;2024-02-26T05:48:17;98352.88;;;1.26;100.00
62011;BME280;47967;51.756;10.174;2024-02-26T05:52:22;98362.97;;;1.31;100.00
62011;BME280;47967;51.756;10.174;2024-02-26T05:56:27;98361.81;;;1.33;100.00
62011;BME280;47967;51.756;10.174;2024-02-26T06:00:29;98359.88;;;1.27;100.00
62011;BME280;47967;51.756;10.174;2024-02-26T06:04:32;98360.97;;;1.33;100.00
62011;BME280;47967;51.756;10.174;2024-02-26T06:08:36;98384.69;;;1.34;100.00
62011;BME280;47967;51.756;10.174;2024-02-26T06:12:39;98395.09;;;1.44;100.00
62011;BME280;47967;51.756;10.174;2024-02-26T06:16:41;98394.72;;;1.55;100.00
62011;BME280;47967;51.756;10.174;2024-02-26T06:20:44;98417.47;;;1.58;100.00
62011;BME280;47967;51.756;10.174;2024-02-26T06:24:49;98413.91;;;1.66;100.00
62011;BME280;47967;51.756;10.174;2024-02-26T06:28:51;98407.97;;;1.64;100.00
62011;BME280;47967;51.756;10.174;2024-02-26T06:32:55;98398.16;;;1.64;100.00
62011;BME280;47967;51.756;10.174;2024-02-26T06:36:58;98406.06;;;1.72;100.00
62011;BME280;47967;51.756;10.174;2024-02-26T06:41:02;98423.13;;;1.78;100.00
62011;BME280;47967;51.756;10.174;2024-02-26T06:45:05;98414.63;;;1.83;100.00
62011;BME280;47967;51.756;10.174;2024-02-26T06:49:09;98415.94;;;1.87;100.00
62011;BME280;47967;51.756;10.174;2024-02-26T06:53:12;98424.78;;;2.02;100.00
62011;BME280;47967;51.756;10.174;2024-02-26T06:57:16;98435.03;;;2.14;100.00
62011;BME280;47967;51.756;10.174;2024-02-26T07:01:18;98435.44;;;2.02;100.00
62011;BME280;47967;51.756;10.174;2024-02-26T07:05:21;98433.44;;;2.04;100.00
62011;BME280;47967;51.756;10.174;2024-02-26T07:09:23;98433.06;;;2.07;100.00
62011;BME280;47967;51.756;10.174;2024-02-26T07:13:27;98429.34;;;1.94;100.00
62011;BME280;47967;51.756;10.174;2024-02-26T07:17:30;98425.50;;;1.96;100.00
62011;BME280;47967;51.756;10.174;2024-02-26T07:21:32;98425.91;;;2.08;100.00
62011;BME280;47967;51.756;10.174;2024-02-26T07:25:35;98413.97;;;2.27;100.00
62011;BME280;47967;51.756;10.174;2024-02-26T07:29:39;98418.78;;;2.62;100.00
62011;BME280;47967;51.756;10.174;2024-02-26T07:33:41;98402.53;;;2.86;100.00
62011;BME280;47967;51.756;10.174;2024-02-26T07:37:46;98387.38;;;3.02;100.00
62011;BME280;47967;51.756;10.174;2024-02-26T07:41:49;98379.19;;;3.03;100.00
62011;BME280;47967;51.756;10.174;2024-02-26T07:45:55;98376.31;;;3.05;100.00
62011;BME280;47967;51.756;10.174;2024-02-26T07:49:58;98375.94;;;3.23;100.00
62011;BME280;47967;51.756;10.174;2024-02-26T07:54:00;98372.84;;;3.41;100.00
62011;BME280;47967;51.756;10.174;2024-02-26T07:58:04;98378.84;;;3.65;100.00
62011;BME280;47967;51.756;10.174;2024-02-26T08:02:11;98378.28;;;3.91;100.00
62011;BME280;47967;51.756;10.174;2024-02-26T08:06:13;98382.47;;;4.00;100.00
62011;BME280;47967;51.756;10.174;2024-02-26T08:10:16;98396.16;;;4.19;100.00
62011;BME280;47967;51.756;10.174;2024-02-26T08:14:18;98404.94;;;4.13;100.00
62011;BME280;47967;51.756;10.174;2024-02-26T08:18:22;98415.66;;;3.55;100.00
62011;BME280;47967;51.756;10.174;2024-02-26T08:22:25;98422.47;;;3.57;100.00
62011;BME280;47967;51.756;10.174;2024-02-26T08:26:27;98420.47;;;3.81;100.00
62011;BME280;47967;51.756;10.174;2024-02-26T08:30:30;98429.03;;;4.20;100.00
62011;BME280;47967;51.756;10.174;2024-02-26T08:34:34;98432.22;;;4.58;100.00
62011;BME280;47967;51.756;10.174;2024-02-26T08:38:37;98419.75;;;4.72;100.00
62011;BME280;47967;51.756;10.174;2024-02-26T08:42:39;98431.22;;;4.94;100.00
62011;BME280;47967;51.756;10.174;2024-02-26T08:46:42;98442.91;;;5.28;100.00
62011;BME280;47967;51.756;10.174;2024-02-26T08:50:45;98439.88;;;5.45;100.00
62011;BME280;47967;51.756;10.174;2024-02-26T08:54:48;98446.47;;;5.42;100.00
62011;BME280;47967;51.756;10.174;2024-02-26T08:58:51;98446.94;;;5.59;100.00
62011;BME280;47967;51.756;10.174;2024-02-26T09:02:55;98444.91;;;5.68;100.00
62011;BME280;47967;51.756;10.174;2024-02-26T09:06:59;98432.75;;;5.72;100.00
62011;BME280;47967;51.756;10.174;2024-02-26T09:11:01;98447.63;;;5.82;100.00
62011;BME280;47967;51.756;10.174;2024-02-26T09:15:05;98444.56;;;5.91;100.00
62011;BME280;47967;51.756;10.174;2024-02-26T09:19:08;98441.53;;;6.15;100.00
62011;BME280;47967;51.756;10.174;2024-02-26T09:23:12;98445.47;;;6.39;100.00
62011;BME280;47967;51.756;10.174;2024-02-26T09:27:15;98439.28;;;6.59;100.00
62011;BME280;47967;51.756;10.174;2024-02-26T09:31:18;98442.56;;;6.74;100.00
62011;BME280;47967;51.756;10.174;2024-02-26T09:35:20;98448.28;;;7.04;100.00
62011;BME280;47967;51.756;10.174;2024-02-26T09:39:24;98440.38;;;7.30;100.00
62011;BME280;47967;51.756;10.174;2024-02-26T09:43:31;98437.94;;;7.21;100.00
62011;BME280;47967;51.756;10.174;2024-02-26T09:47:36;98447.63;;;7.16;100.00
62011;BME280;47967;51.756;10.174;2024-02-26T09:51:40;98451.94;;;7.76;100.00
62011;BME280;47967;51.756;10.174;2024-02-26T09:55:43;98450.84;;;8.22;100.00
62011;BME280;47967;51.756;10.174;2024-02-26T09:59:46;98456.09;;;8.42;100.00
62011;BME280;47967;51.756;10.174;2024-02-26T10:03:52;98452.00;;;8.65;100.00
62011;BME280;47967;51.756;10.174;2024-02-26T10:07:57;98453.94;;;9.20;100.00
62011;BME280;47967;51.756;10.174;2024-02-26T10:12:06;98445.50;;;9.54;100.00
62011;BME280;47967;51.756;10.174;2024-02-26T10:16:09;98449.06;;;9.66;100.00
62011;BME280;47967;51.756;10.174;2024-02-26T10:20:12;98458.66;;;10.23;100.00
62011;BME280;47967;51.756;10.174;2024-02-26T10:24:17;98460.50;;;10.65;95.99
62011;BME280;47967;51.756;10.174;2024-02-26T10:28:21;98455.59;;;10.97;93.81
62011;BME280;47967;51.756;10.174;2024-02-26T10:32:23;98457.66;;;11.43;85.74
62011;BME280;47967;51.756;10.174;2024-02-26T10:36:26;98462.81;;;11.85;82.74
62011;BME280;47967;51.756;10.174;2024-02-26T10:40:44;98468.41;;;12.07;81.97
62011;BME280;47967;51.756;10.174;2024-02-26T10:44:48;98469.97;;;12.49;71.84
62011;BME280;47967;51.756;10.174;2024-02-26T10:48:51;98468.66;;;12.52;71.39
62011;BME280;47967;51.756;10.174;2024-02-26T10:52:54;98483.72;;;12.47;68.94
62011;BME280;47967;51.756;10.174;2024-02-26T10:56:57;98478.94;;;12.38;64.31
62011;BME280;47967;51.756;10.174;2024-02-26T11:01:02;98479.41;;;12.17;74.70
62011;BME280;47967;51.756;10.174;2024-02-26T11:05:06;98480.69;;;11.86;77.31
62011;BME280;47967;51.756;10.174;2024-02-26T11:09:10;98488.44;;;11.82;78.53
62011;BME280;47967;51.756;10.174;2024-02-26T11:13:16;98493.47;;;11.91;76.33
62011;BME280;47967;51.756;10.174;2024-02-26T11:17:21;98490.88;;;11.96;75.55
62011;BME280;47967;51.756;10.174;2024-02-26T11:21:24;98491.03;;;12.18;71.78
62011;BME280;47967;51.756;10.174;2024-02-26T11:25:31;98489.00;;;12.25;69.12
62011;BME280;47967;51.756;10.174;2024-02-26T11:29:38;98490.09;;;12.41;68.72
62011;BME280;47967;51.756;10.174;2024-02-26T11:33:43;98497.47;;;12.46;66.47
62011;BME280;47967;51.756;10.174;2024-02-26T11:37:55;98501.13;;;12.86;66.82
62011;BME280;47967;51.756;10.174;2024-02-26T11:42:03;98503.22;;;13.18;61.76
62011;BME280;47967;51.756;10.174;2024-02-26T11:46:10;98492.72;;;13.38;59.90
62011;BME280;47967;51.756;10.174;2024-02-26T11:50:34;98501.16;;;13.25;56.84
62011;BME280;47967;51.756;10.174;2024-02-26T11:54:44;98499.41;;;13.53;54.95
62011;BME280;47967;51.756;10.174;2024-02-26T11:58:46;98489.84;;;13.67;53.19
62011;BME280;47967;51.756;10.174;2024-02-26T12:02:51;98485.59;;;13.76;51.87
62011;BME280;47967;51.756;10.174;2024-02-26T12:07:01;98487.81;;;14.29;50.48
62011;BME280;47967;51.756;10.174;2024-02-26T12:11:05;98490.72;;;15.15;48.97
62011;BME280;47967;51.756;10.174;2024-02-26T12:15:16;98485.84;;;14.52;53.23
62011;BME280;47967;51.756;10.174;2024-02-26T12:19:21;98489.19;;;14.32;53.23
62011;BME280;47967;51.756;10.174;2024-02-26T12:23:25;98487.50;;;14.53;51.46
62011;BME280;47967;51.756;10.174;2024-02-26T12:27:28;98485.50;;;14.43;50.30
62011;BME280;47967;51.756;10.174;2024-02-26T12:31:31;98491.69;;;14.38;50.86
62011;BME280;47967;51.756;10.174;2024-02-26T12:35:34;98493.84;;;14.36;51.11
62011;BME280;47967;51.756;10.174;2024-02-26T12:39:38;98498.13;;;14.27;48.07
62011;BME280;47967;51.756;10.174;2024-02-26T12:43:41;98500.56;;;14.29;49.35
62011;BME280;47967;51.756;10.174;2024-02-26T12:47:44;98506.06;;;14.39;48.03
62011;BME280;47967;51.756;10.174;2024-02-26T12:51:47;98523.00;;;13.97;47.06
62011;BME280;47967;51.756;10.174;2024-02-26T12:55:51;98526.19;;;13.93;47.64
62011;BME280;47967;51.756;10.174;2024-02-26T12:59:54;98529.13;;;13.87;47.97
62011;BME280;47967;51.756;10.174;2024-02-26T13:03:56;98526.91;;;13.84;48.91
62011;BME280;47967;51.756;10.174;2024-02-26T13:08:00;98530.09;;;13.58;51.08
62011;BME280;47967;51.756;10.174;2024-02-26T13:12:08;98541.44;;;13.55;53.58
62011;BME280;47967;51.756;10.174;2024-02-26T13:16:14;98551.97;;;13.35;60.52
62011;BME280;47967;51.756;10.174;2024-02-26T13:20:25;98548.44;;;12.66;59.12
62011;BME280;47967;51.756;10.174;2024-02-26T13:24:27;98555.31;;;12.57;56.91
62011;BME280;47967;51.756;10.174;2024-02-26T13:28:33;98550.47;;;12.59;58.24
62011;BME280;47967;51.756;10.174;2024-02-26T13:32:36;98551.00;;;12.90;60.37
62011;BME280;47967;51.756;10.174;2024-02-26T13:36:39;98560.50;;;12.92;59.26
62011;BME280;47967;51.756;10.174;2024-02-26T13:40:42;98563.00;;;12.94;58.32
62011;BME280;47967;51.756;10.174;2024-02-26T13:44:46;98568.56;;;13.21;63.07
62011;BME280;47967;51.756;10.174;2024-02-26T13:48:48;98578.66;;;13.09;66.30
62011;BME280;47967;51.756;10.174;2024-02-26T13:52:51;98584.22;;;13.19;65.73
62011;BME280;47967;51.756;10.174;2024-02-26T13:56:55;98595.31;;;13.01;54.90
62011;BME280;47967;51.756;10.174;2024-02-26T14:00:59;98600.16;;;12.53;54.03
62011;BME280;47967;51.756;10.174;2024-02-26T14:05:04;98613.19;;;12.27;53.64
62011;BME280;47967;51.756;10.174;2024-02-26T14:09:07;98611.81;;;11.89;53.60
62011;BME280;47967;51.756;10.174;2024-02-26T14:13:10;98620.28;;;11.80;55.08
62011;BME280;47967;51.756;10.174;2024-02-26T14:17:14;98632.16;;;11.67;55.94
62011;BME280;47967;51.756;10.174;2024-02-26T14:21:17;98633.78;;;11.92;56.13
62011;BME280;47967;51.756;10.174;2024-02-26T14:25:19;98643.19;;;12.13;55.47
62011;BME280;47967;51.756;10.174;2024-02-26T14:29:22;98642.94;;;12.15;54.67
62011;BME280;47967;51.756;10.174;2024-02-26T14:33:26;98646.94;;;12.24;57.01
62011;BME280;47967;51.756;10.174;2024-02-26T14:37:28;98644.00;;;12.14;56.86
62011;BME280;47967;51.756;10.174;2024-02-26T14:41:31;98649.25;;;12.32;58.63
62011;BME280;47967;51.756;10.174;2024-02-26T14:45:33;98647.06;;;12.17;58.16
62011;BME280;47967;51.756;10.174;2024-02-26T14:49:37;98670.47;;;12.00;58.18
62011;BME280;47967;51.756;10.174;2024-02-26T14:53:40;98671.84;;;11.91;57.03
62011;BME280;47967;51.756;10.174;2024-02-26T14:57:42;98680.69;;;11.98;58.50
62011;BME280;47967;51.756;10.174;2024-02-26T15:01:45;98690.66;;;11.85;57.96
62011;BME280;47967;51.756;10.174;2024-02-26T15:05:50;98700.50;;;11.56;58.17
62011;BME280;47967;51.756;10.174;2024-02-26T15:09:52;98687.41;;;11.17;58.24
62011;BME280;47967;51.756;10.174;2024-02-26T15:13:58;98701.16;;;11.28;58.43
62011;BME280;47967;51.756;10.174;2024-02-26T15:18:01;98697.47;;;11.52;60.23
62011;BME280;47967;51.756;10.174;2024-02-26T15:22:05;98702.28;;;11.74;59.98
62011;BME280;47967;51.756;10.174;2024-02-26T15:26:07;98691.81;;;11.78;57.43
62011;BME280;47967;51.756;10.174;2024-02-26T15:30:10;98691.13;;;11.71;55.92
62011;BME280;47967;51.756;10.174;2024-02-26T15:34:13;98702.16;;;11.57;57.30
62011;BME280;47967;51.756;10.174;2024-02-26T15:38:17;98706.25;;;11.48;57.05
62011;BME280;47967;51.756;10.174;2024-02-26T15:42:20;98706.84;;;11.50;57.38
62011;BME280;47967;51.756;10.174;2024-02-26T15:46:23;98701.56;;;11.55;58.54
62011;BME280;47967;51.756;10.174;2024-02-26T15:50:25;98706.13;;;11.43;58.77
62011;BME280;47967;51.756;10.174;2024-02-26T15:54:29;98710.28;;;11.15;61.87
62011;BME280;47967;51.756;10.174;2024-02-26T15:58:32;98712.31;;;10.70;64.86
62011;BME280;47967;51.756;10.174;2024-02-26T16:02:35;98718.69;;;10.76;65.66
62011;BME280;47967;51.756;10.174;2024-02-26T16:06:38;98723.19;;;10.64;66.61
62011;BME280;47967;51.756;10.174;2024-02-26T16:10:43;98742.09;;;10.45;67.17
62011;BME280;47967;51.756;10.174;2024-02-26T16:14:46;98740.47;;;10.19;69.19
62011;BME280;47967;51.756;10.174;2024-02-26T16:18:56;98742.88;;;10.27;69.62
62011;BME280;47967;51.756;10.174;2024-02-26T16:23:07;98744.72;;;10.08;71.67
62011;BME280;47967;51.756;10.174;2024-02-26T16:27:11;98757.34;;;9.89;71.96
62011;BME280;47967;51.756;10.174;2024-02-26T16:31:13;98756.41;;;9.76;71.33
62011;BME280;47967;51.756;10.174;2024-02-26T16:35:16;98755.44;;;9.64;72.38
62011;BME280;47967;51.756;10.174;2024-02-26T16:39:19;98771.66;;;9.57;74.10
62011;BME280;47967;51.756;10.174;2024-02-26T16:43:22;98770.50;;;9.47;73.52
62011;BME280;47967;51.756;10.174;2024-02-26T16:47:25;98777.53;;;9.48;74.49
62011;BME280;47967;51.756;10.174;2024-02-26T16:51:27;98790.03;;;9.35;74.93
62011;BME280;47967;51.756;10.174;2024-02-26T16:55:30;98771.44;;;9.27;76.46
62011;BME280;47967;51.756;10.174;2024-02-26T16:59:36;98789.28;;;9.21;77.87
62011;BME280;47967;51.756;10.174;2024-02-26T17:03:39;98787.28;;;9.10;79.44
62011;BME280;47967;51.756;10.174;2024-02-26T17:07:41;98796.38;;;9.09;81.89
62011;BME280;47967;51.756;10.174;2024-02-26T17:11:46;98799.69;;;9.11;83.12
62011;BME280;47967;51.756;10.174;2024-02-26T17:15:50;98812.53;;;9.09;82.08
62011;BME280;47967;51.756;10.174;2024-02-26T17:19:53;98820.88;;;8.94;83.16
62011;BME280;47967;51.756;10.174;2024-02-26T17:23:55;98818.59;;;8.97;84.19
62011;BME280;47967;51.756;10.174;2024-02-26T17:27:58;98836.38;;;8.99;84.52
62011;BME280;47967;51.756;10.174;2024-02-26T17:32:02;98840.78;;;8.86;85.53
62011;BME280;47967;51.756;10.174;2024-02-26T17:36:11;98841.78;;;8.92;87.52
62011;BME280;47967;51.756;10.174;2024-02-26T17:40:14;98856.50;;;8.83;89.79
62011;BME280;47967;51.756;10.174;2024-02-26T17:44:16;98862.50;;;8.85;90.17
62011;BME280;47967;51.756;10.174;2024-02-26T17:48:20;98879.88;;;8.82;91.17
62011;BME280;47967;51.756;10.174;2024-02-26T17:52:23;98882.78;;;8.80;90.66
62011;BME280;47967;51.756;10.174;2024-02-26T17:56:25;98898.47;;;8.84;90.56
62011;BME280;47967;51.756;10.174;2024-02-26T18:00:28;98908.03;;;8.86;89.63
62011;BME280;47967;51.756;10.174;2024-02-26T18:04:32;98909.06;;;8.78;89.12
62011;BME280;47967;51.756;10.174;2024-02-26T18:08:35;98918.56;;;8.81;89.67
62011;BME280;47967;51.756;10.174;2024-02-26T18:12:37;98935.53;;;8.75;89.98
62011;BME280;47967;51.756;10.174;2024-02-26T18:16:40;98942.59;;;8.83;90.18
62011;BME280;47967;51.756;10.174;2024-02-26T18:20:44;98945.47;;;8.81;89.29
62011;BME280;47967;51.756;10.174;2024-02-26T18:24:46;98940.72;;;8.70;89.88
62011;BME280;47967;51.756;10.174;2024-02-26T18:28:49;98946.72;;;8.65;89.82
62011;BME280;47967;51.756;10.174;2024-02-26T18:32:52;98940.53;;;8.64;89.79
62011;BME280;47967;51.756;10.174;2024-02-26T18:36:56;98958.31;;;8.52;90.43
62011;BME280;47967;51.756;10.174;2024-02-26T18:41:00;98962.00;;;8.44;91.58
62011;BME280;47967;51.756;10.174;2024-02-26T18:45:03;98958.06;;;8.40;91.46
62011;BME280;47967;51.756;10.174;2024-02-26T18:49:06;98971.72;;;8.45;90.52
62011;BME280;47967;51.756;10.174;2024-02-26T18:53:10;98969.69;;;8.54;89.83
62011;BME280;47967;51.756;10.174;2024-02-26T18:57:12;98986.63;;;8.41;91.51
62011;BME280;47967;51.756;10.174;2024-02-26T19:01:15;98995.06;;;8.25;92.64
62011;BME280;47967;51.756;10.174;2024-02-26T19:05:18;99001.28;;;8.45;90.55
62011;BME280;47967;51.756;10.174;2024-02-26T19:09:28;99007.69;;;8.38;91.40
62011;BME280;47967;51.756;10.174;2024-02-26T19:13:31;99015.91;;;8.16;94.01
62011;BME280;47967;51.756;10.174;2024-02-26T19:17:34;99030.53;;;8.07;96.03
62011;BME280;47967;51.756;10.174;2024-02-26T19:21:37;99043.41;;;8.18;94.21
62011;BME280;47967;51.756;10.174;2024-02-26T19:25:41;99050.19;;;8.07;95.72
62011;BME280;47967;51.756;10.174;2024-02-26T19:29:44;99056.44;;;8.14;95.67
62011;BME280;47967;51.756;10.174;2024-02-26T19:33:46;99057.47;;;8.20;94.62
62011;BME280;47967;51.756;10.174;2024-02-26T19:37:49;99066.38;;;8.21;94.58
62011;BME280;47967;51.756;10.174;2024-02-26T19:41:53;99060.38;;;8.25;95.44
62011;BME280;47967;51.756;10.174;2024-02-26T19:45:56;99059.94;;;8.15;96.12
62011;BME280;47967;51.756;10.174;2024-02-26T19:49:58;99067.38;;;8.20;96.52
62011;BME280;47967;51.756;10.174;2024-02-26T19:54:01;99073.94;;;8.04;98.39
62011;BME280;47967;51.756;10.174;2024-02-26T19:58:06;99087.44;;;8.17;97.28
62011;BME280;47967;51.756;10.174;2024-02-26T20:02:09;99089.47;;;8.08;98.39
62011;BME280;47967;51.756;10.174;2024-02-26T20:06:11;99083.28;;;8.14;98.92
62011;BME280;47967;51.756;10.174;2024-02-26T20:10:14;99093.19;;;8.07;99.61
62011;BME280;47967;51.756;10.174;2024-02-26T20:14:18;99102.63;;;7.96;100.00
62011;BME280;47967;51.756;10.174;2024-02-26T20:18:21;99111.28;;;7.92;100.00
62011;BME280;47967;51.756;10.174;2024-02-26T20:22:24;99119.13;;;7.87;100.00
62011;BME280;47967;51.756;10.174;2024-02-26T20:26:26;99126.53;;;7.84;100.00
62011;BME280;47967;51.756;10.174;2024-02-26T20:30:30;99139.97;;;7.84;100.00
62011;BME280;47967;51.756;10.174;2024-02-26T20:34:33;99142.06;;;7.89;100.00
62011;BME280;47967;51.756;10.174;2024-02-26T20:38:36;99153.25;;;7.93;100.00
62011;BME280;47967;51.756;10.174;2024-02-26T20:42:39;99160.56;;;7.77;100.00
62011;BME280;47967;51.756;10.174;2024-02-26T20:46:43;99167.22;;;7.81;100.00
62011;BME280;47967;51.756;10.174;2024-02-26T20:50:46;99174.66;;;7.79;100.00
62011;BME280;47967;51.756;10.174;2024-02-26T20:54:49;99185.75;;;7.76;100.00
62011;BME280;47967;51.756;10.174;2024-02-26T20:58:52;99193.06;;;7.82;100.00
62011;BME280;47967;51.756;10.174;2024-02-26T21:02:56;99198.50;;;7.67;100.00
62011;BME280;47967;51.756;10.174;2024-02-26T21:06:58;99194.38;;;7.65;100.00
62011;BME280;47967;51.756;10.174;2024-02-26T21:11:01;99206.13;;;7.64;100.00
62011;BME280;47967;51.756;10.174;2024-02-26T21:15:05;99209.78;;;7.28;100.00
62011;BME280;47967;51.756;10.174;2024-02-26T21:19:10;99211.34;;;7.44;100.00
62011;BME280;47967;51.756;10.174;2024-02-26T21:23:13;99225.13;;;7.41;100.00
62011;BME280;47967;51.756;10.174;2024-02-26T21:27:15;99234.84;;;7.20;100.00
62011;BME280;47967;51.756;10.174;2024-02-26T21:31:18;99239.91;;;7.08;100.00
62011;BME280;47967;51.756;10.174;2024-02-26T21:35:21;99249.31;;;7.19;100.00
62011;BME280;47967;51.756;10.174;2024-02-26T21:39:24;99258.56;;;7.16;100.00
62011;BME280;47967;51.756;10.174;2024-02-26T21:43:27;99263.16;;;7.22;100.00
62011;BME280;47967;51.756;10.174;2024-02-26T21:47:29;99264.25;;;7.28;100.00
62011;BME280;47967;51.756;10.174;2024-02-26T21:51:33;99265.91;;;7.29;100.00
62011;BME280;47967;51.756;10.174;2024-02-26T21:55:36;99274.78;;;7.30;100.00
62011;BME280;47967;51.756;10.174;2024-02-26T21:59:40;99275.28;;;7.18;100.00
